Terminal Aerodrome Forecast
Issued by NWS

Home | Current Version | Previous Version | Text Only | Print | Product List | Glossary On
Versions: 1 2 3 4 5 6 7 8 9 10 11 12 13 14 15 16 17 18 19 20 21 22 23 24 25 26 27 28 29 30 31 32 33 34 35 36 37 38 39 40 41 42 43 44 45 46 47 48
507
FTUS41 KALY 181720
TAFPSF
TAF
KPSF 181720Z 1818/1918 18010KT P6SM BKN070 OVC120
     FM182000 17007KT P6SM VCSH OVC030
     FM182300 18008KT 5SM -RA BR OVC015
     FM190200 19010KT 3SM -RA BR OVC007 WS020/21040KT
     FM191000 21010KT P6SM VCSH OVC015 WS020/21040KT
     FM191300 22012G20KT P6SM VCSH OVC030
     FM191500 27017G28KT P6SM BKN045 BKN100=

USA.gov is the U.S. government's official web portal to all federal, state and local government web resources and services.